sensor_id;sensor_type;location;lat;lon;timestamp;temperature;humidity
68011;DHT22;54794;48.348;7.878;2023-12-04T00:00:43;1.00;66.20
68011;DHT22;54794;48.348;7.878;2023-12-04T00:03:10;0.80;66.20
68011;DHT22;54794;48.348;7.878;2023-12-04T00:05:36;1.30;66.40
68011;DHT22;54794;48.348;7.878;2023-12-04T00:08:03;0.90;66.20
68011;DHT22;54794;48.348;7.878;2023-12-04T00:10:30;0.90;66.40
68011;DHT22;54794;48.348;7.878;2023-12-04T00:13:00;0.70;66.20
68011;DHT22;54794;48.348;7.878;2023-12-04T00:15:27;0.80;66.40
68011;DHT22;54794;48.348;7.878;2023-12-04T00:17:55;0.90;66.40
68011;DHT22;54794;48.348;7.878;2023-12-04T00:20:22;0.90;66.50
68011;DHT22;54794;48.348;7.878;2023-12-04T00:22:48;0.90;66.40
68011;DHT22;54794;48.348;7.878;2023-12-04T00:25:15;0.90;66.40
68011;DHT22;54794;48.348;7.878;2023-12-04T00:27:42;0.80;66.30
68011;DHT22;54794;48.348;7.878;2023-12-04T00:30:09;1.10;66.50
68011;DHT22;54794;48.348;7.878;2023-12-04T00:32:36;0.80;66.40
68011;DHT22;54794;48.348;7.878;2023-12-04T00:35:03;1.20;66.70
68011;DHT22;54794;48.348;7.878;2023-12-04T00:37:30;0.80;66.50
68011;DHT22;54794;48.348;7.878;2023-12-04T00:39:57;0.80;66.50
68011;DHT22;54794;48.348;7.878;2023-12-04T00:42:24;0.70;66.40
68011;DHT22;54794;48.348;7.878;2023-12-04T00:44:51;0.80;66.50
68011;DHT22;54794;48.348;7.878;2023-12-04T00:47:18;0.80;66.50
68011;DHT22;54794;48.348;7.878;2023-12-04T00:49:45;0.70;66.40
68011;DHT22;54794;48.348;7.878;2023-12-04T00:52:12;0.80;66.50
68011;DHT22;54794;48.348;7.878;2023-12-04T00:54:39;0.80;66.50
68011;DHT22;54794;48.348;7.878;2023-12-04T00:57:09;0.90;66.50
68011;DHT22;54794;48.348;7.878;2023-12-04T00:59:36;0.90;66.50
68011;DHT22;54794;48.348;7.878;2023-12-04T01:02:03;0.90;66.70
68011;DHT22;54794;48.348;7.878;2023-12-04T01:04:31;1.00;66.60
68011;DHT22;54794;48.348;7.878;2023-12-04T01:06:58;0.80;66.50
68011;DHT22;54794;48.348;7.878;2023-12-04T01:09:25;0.90;66.60
68011;DHT22;54794;48.348;7.878;2023-12-04T01:11:53;0.70;66.50
68011;DHT22;54794;48.348;7.878;2023-12-04T01:14:21;0.80;66.50
68011;DHT22;54794;48.348;7.878;2023-12-04T01:16:48;0.80;66.50
68011;DHT22;54794;48.348;7.878;2023-12-04T01:19:15;0.90;66.50
68011;DHT22;54794;48.348;7.878;2023-12-04T01:21:42;0.90;66.60
68011;DHT22;54794;48.348;7.878;2023-12-04T01:24:09;0.80;66.60
68011;DHT22;54794;48.348;7.878;2023-12-04T01:26:36;0.70;67.00
68011;DHT22;54794;48.348;7.878;2023-12-04T01:29:03;1.10;66.70
68011;DHT22;54794;48.348;7.878;2023-12-04T01:31:30;0.80;66.40
68011;DHT22;54794;48.348;7.878;2023-12-04T01:33:57;0.80;66.60
68011;DHT22;54794;48.348;7.878;2023-12-04T01:36:24;0.90;66.40
68011;DHT22;54794;48.348;7.878;2023-12-04T01:38:50;0.80;66.40
68011;DHT22;54794;48.348;7.878;2023-12-04T01:41:17;1.10;67.00
68011;DHT22;54794;48.348;7.878;2023-12-04T01:43:45;0.80;66.50
68011;DHT22;54794;48.348;7.878;2023-12-04T01:46:13;0.50;66.30
68011;DHT22;54794;48.348;7.878;2023-12-04T01:48:45;0.70;66.50
68011;DHT22;54794;48.348;7.878;2023-12-04T01:51:13;1.10;66.80
68011;DHT22;54794;48.348;7.878;2023-12-04T01:53:42;0.80;66.50
68011;DHT22;54794;48.348;7.878;2023-12-04T01:56:10;0.80;66.50
68011;DHT22;54794;48.348;7.878;2023-12-04T01:58:37;0.80;66.60
68011;DHT22;54794;48.348;7.878;2023-12-04T02:01:05;0.70;66.50
68011;DHT22;54794;48.348;7.878;2023-12-04T02:03:33;0.80;66.50
68011;DHT22;54794;48.348;7.878;2023-12-04T02:06:01;0.90;66.50
68011;DHT22;54794;48.348;7.878;2023-12-04T02:08:32;0.70;66.40
68011;DHT22;54794;48.348;7.878;2023-12-04T02:10:59;0.70;66.40
68011;DHT22;54794;48.348;7.878;2023-12-04T02:13:26;0.80;66.40
68011;DHT22;54794;48.348;7.878;2023-12-04T02:15:54;0.70;66.40
68011;DHT22;54794;48.348;7.878;2023-12-04T02:18:25;0.70;66.50
68011;DHT22;54794;48.348;7.878;2023-12-04T02:20:54;0.70;66.50
68011;DHT22;54794;48.348;7.878;2023-12-04T02:23:20;0.70;67.10
68011;DHT22;54794;48.348;7.878;2023-12-04T02:25:47;0.70;66.60
68011;DHT22;54794;48.348;7.878;2023-12-04T02:28:16;0.60;66.60
68011;DHT22;54794;48.348;7.878;2023-12-04T02:30:46;0.70;67.20
68011;DHT22;54794;48.348;7.878;2023-12-04T02:33:18;0.60;66.70
68011;DHT22;54794;48.348;7.878;2023-12-04T02:35:50;0.70;66.70
68011;DHT22;54794;48.348;7.878;2023-12-04T02:38:18;0.80;66.80
68011;DHT22;54794;48.348;7.878;2023-12-04T02:40:46;0.70;66.80
68011;DHT22;54794;48.348;7.878;2023-12-04T02:43:13;0.80;66.90
68011;DHT22;54794;48.348;7.878;2023-12-04T02:45:40;0.80;66.90
68011;DHT22;54794;48.348;7.878;2023-12-04T02:48:07;0.80;66.80
68011;DHT22;54794;48.348;7.878;2023-12-04T02:50:34;0.80;66.80
68011;DHT22;54794;48.348;7.878;2023-12-04T02:53:01;0.90;66.90
68011;DHT22;54794;48.348;7.878;2023-12-04T02:55:28;1.00;66.90
68011;DHT22;54794;48.348;7.878;2023-12-04T02:57:58;0.80;66.90
68011;DHT22;54794;48.348;7.878;2023-12-04T03:00:25;0.70;66.90
68011;DHT22;54794;48.348;7.878;2023-12-04T03:02:52;0.80;66.90
68011;DHT22;54794;48.348;7.878;2023-12-04T03:05:19;0.80;67.00
68011;DHT22;54794;48.348;7.878;2023-12-04T03:07:46;0.90;67.00
68011;DHT22;54794;48.348;7.878;2023-12-04T03:10:13;0.90;67.00
68011;DHT22;54794;48.348;7.878;2023-12-04T03:12:42;1.70;67.30
68011;DHT22;54794;48.348;7.878;2023-12-04T03:15:09;0.80;66.80
68011;DHT22;54794;48.348;7.878;2023-12-04T03:17:38;0.90;66.80
68011;DHT22;54794;48.348;7.878;2023-12-04T03:20:05;1.60;67.20
68011;DHT22;54794;48.348;7.878;2023-12-04T03:22:36;0.90;66.80
68011;DHT22;54794;48.348;7.878;2023-12-04T03:25:04;0.90;66.70
68011;DHT22;54794;48.348;7.878;2023-12-04T03:27:31;0.80;66.70
68011;DHT22;54794;48.348;7.878;2023-12-04T03:29:58;1.30;67.10
68011;DHT22;54794;48.348;7.878;2023-12-04T03:32:26;0.90;66.90
68011;DHT22;54794;48.348;7.878;2023-12-04T03:34:52;0.80;66.70
68011;DHT22;54794;48.348;7.878;2023-12-04T03:37:19;0.80;66.70
68011;DHT22;54794;48.348;7.878;2023-12-04T03:39:46;0.80;66.70
68011;DHT22;54794;48.348;7.878;2023-12-04T03:42:14;1.00;66.90
68011;DHT22;54794;48.348;7.878;2023-12-04T03:44:41;0.80;66.80
68011;DHT22;54794;48.348;7.878;2023-12-04T03:47:08;0.80;66.70
68011;DHT22;54794;48.348;7.878;2023-12-04T03:49:35;0.90;66.80
68011;DHT22;54794;48.348;7.878;2023-12-04T03:52:02;0.80;66.70
68011;DHT22;54794;48.348;7.878;2023-12-04T03:54:29;0.90;66.80
68011;DHT22;54794;48.348;7.878;2023-12-04T03:56:56;1.60;67.20
68011;DHT22;54794;48.348;7.878;2023-12-04T03:59:23;0.90;66.80
68011;DHT22;54794;48.348;7.878;2023-12-04T04:01:50;0.80;66.70
68011;DHT22;54794;48.348;7.878;2023-12-04T04:04:17;0.90;66.80
68011;DHT22;54794;48.348;7.878;2023-12-04T04:06:44;1.00;66.90
68011;DHT22;54794;48.348;7.878;2023-12-04T04:09:11;0.80;66.90
68011;DHT22;54794;48.348;7.878;2023-12-04T04:11:38;0.90;67.00
68011;DHT22;54794;48.348;7.878;2023-12-04T04:14:05;0.80;67.00
68011;DHT22;54794;48.348;7.878;2023-12-04T04:16:32;0.80;67.40
68011;DHT22;54794;48.348;7.878;2023-12-04T04:18:58;0.90;66.90
68011;DHT22;54794;48.348;7.878;2023-12-04T04:21:25;0.90;66.90
68011;DHT22;54794;48.348;7.878;2023-12-04T04:23:53;1.00;66.90
68011;DHT22;54794;48.348;7.878;2023-12-04T04:26:20;0.90;66.90
68011;DHT22;54794;48.348;7.878;2023-12-04T04:28:47;0.90;66.80
68011;DHT22;54794;48.348;7.878;2023-12-04T04:31:13;0.90;66.80
68011;DHT22;54794;48.348;7.878;2023-12-04T04:33:41;1.00;66.80
68011;DHT22;54794;48.348;7.878;2023-12-04T04:36:09;0.90;66.80
68011;DHT22;54794;48.348;7.878;2023-12-04T04:38:36;1.00;66.90
68011;DHT22;54794;48.348;7.878;2023-12-04T04:41:05;1.10;67.00
68011;DHT22;54794;48.348;7.878;2023-12-04T04:43:32;1.00;67.00
68011;DHT22;54794;48.348;7.878;2023-12-04T04:46:00;0.90;67.50
68011;DHT22;54794;48.348;7.878;2023-12-04T04:48:26;1.30;67.20
68011;DHT22;54794;48.348;7.878;2023-12-04T04:50:53;1.00;67.00
68011;DHT22;54794;48.348;7.878;2023-12-04T04:53:20;1.00;67.00
68011;DHT22;54794;48.348;7.878;2023-12-04T04:55:47;1.00;67.00
68011;DHT22;54794;48.348;7.878;2023-12-04T04:58:18;1.00;67.00
68011;DHT22;54794;48.348;7.878;2023-12-04T05:00:45;1.10;67.20
68011;DHT22;54794;48.348;7.878;2023-12-04T05:03:13;1.10;67.10
68011;DHT22;54794;48.348;7.878;2023-12-04T05:05:40;1.10;67.20
68011;DHT22;54794;48.348;7.878;2023-12-04T05:08:07;1.10;67.20
68011;DHT22;54794;48.348;7.878;2023-12-04T05:10:34;1.10;67.20
68011;DHT22;54794;48.348;7.878;2023-12-04T05:13:01;1.00;67.20
68011;DHT22;54794;48.348;7.878;2023-12-04T05:15:28;1.10;67.20
68011;DHT22;54794;48.348;7.878;2023-12-04T05:17:55;1.20;67.20
68011;DHT22;54794;48.348;7.878;2023-12-04T05:20:21;1.10;67.20
68011;DHT22;54794;48.348;7.878;2023-12-04T05:22:49;1.20;67.10
68011;DHT22;54794;48.348;7.878;2023-12-04T05:25:16;1.20;67.20
68011;DHT22;54794;48.348;7.878;2023-12-04T05:27:42;1.30;67.10
68011;DHT22;54794;48.348;7.878;2023-12-04T05:30:10;1.20;67.10
68011;DHT22;54794;48.348;7.878;2023-12-04T05:32:37;1.30;67.20
68011;DHT22;54794;48.348;7.878;2023-12-04T05:35:04;1.70;67.50
68011;DHT22;54794;48.348;7.878;2023-12-04T05:37:31;1.30;67.20
68011;DHT22;54794;48.348;7.878;2023-12-04T05:39:58;1.30;67.20
68011;DHT22;54794;48.348;7.878;2023-12-04T05:42:28;1.30;67.20
68011;DHT22;54794;48.348;7.878;2023-12-04T05:44:58;1.40;67.10
68011;DHT22;54794;48.348;7.878;2023-12-04T05:47:26;1.70;67.30
68011;DHT22;54794;48.348;7.878;2023-12-04T05:49:53;1.30;67.10
68011;DHT22;54794;48.348;7.878;2023-12-04T05:52:20;1.30;67.20
68011;DHT22;54794;48.348;7.878;2023-12-04T05:54:47;2.10;67.60
68011;DHT22;54794;48.348;7.878;2023-12-04T05:57:14;1.40;67.20
68011;DHT22;54794;48.348;7.878;2023-12-04T05:59:42;1.50;67.20
68011;DHT22;54794;48.348;7.878;2023-12-04T06:02:09;1.50;67.20
68011;DHT22;54794;48.348;7.878;2023-12-04T06:04:36;1.40;67.20
68011;DHT22;54794;48.348;7.878;2023-12-04T06:07:03;1.50;67.20
68011;DHT22;54794;48.348;7.878;2023-12-04T06:09:30;1.40;67.20
68011;DHT22;54794;48.348;7.878;2023-12-04T06:11:57;1.50;67.10
68011;DHT22;54794;48.348;7.878;2023-12-04T06:14:23;1.50;67.20
68011;DHT22;54794;48.348;7.878;2023-12-04T06:16:51;1.50;67.10
68011;DHT22;54794;48.348;7.878;2023-12-04T06:19:18;1.50;67.10
68011;DHT22;54794;48.348;7.878;2023-12-04T06:21:45;1.50;67.10
68011;DHT22;54794;48.348;7.878;2023-12-04T06:24:12;1.50;67.10
68011;DHT22;54794;48.348;7.878;2023-12-04T06:26:42;1.50;67.20
68011;DHT22;54794;48.348;7.878;2023-12-04T06:29:10;1.50;67.10
68011;DHT22;54794;48.348;7.878;2023-12-04T06:31:37;1.50;67.10
68011;DHT22;54794;48.348;7.878;2023-12-04T06:34:06;1.50;67.10
68011;DHT22;54794;48.348;7.878;2023-12-04T06:36:40;1.50;67.10
68011;DHT22;54794;48.348;7.878;2023-12-04T06:39:13;1.50;67.20
68011;DHT22;54794;48.348;7.878;2023-12-04T06:41:43;1.90;67.90
68011;DHT22;54794;48.348;7.878;2023-12-04T06:44:14;1.50;67.20
68011;DHT22;54794;48.348;7.878;2023-12-04T06:46:50;1.50;67.20
68011;DHT22;54794;48.348;7.878;2023-12-04T06:49:31;2.10;67.60
68011;DHT22;54794;48.348;7.878;2023-12-04T06:52:01;1.70;67.30
68011;DHT22;54794;48.348;7.878;2023-12-04T06:54:34;1.50;67.30
68011;DHT22;54794;48.348;7.878;2023-12-04T06:57:01;1.40;67.30
68011;DHT22;54794;48.348;7.878;2023-12-04T06:59:28;2.30;67.80
68011;DHT22;54794;48.348;7.878;2023-12-04T07:01:55;1.60;67.40
68011;DHT22;54794;48.348;7.878;2023-12-04T07:04:22;1.50;67.20
68011;DHT22;54794;48.348;7.878;2023-12-04T07:06:49;1.60;67.30
68011;DHT22;54794;48.348;7.878;2023-12-04T07:09:16;1.90;67.40
68011;DHT22;54794;48.348;7.878;2023-12-04T07:11:44;1.60;67.30
68011;DHT22;54794;48.348;7.878;2023-12-04T07:14:11;1.60;67.30
68011;DHT22;54794;48.348;7.878;2023-12-04T07:16:40;1.60;67.20
68011;DHT22;54794;48.348;7.878;2023-12-04T07:19:10;1.60;67.20
68011;DHT22;54794;48.348;7.878;2023-12-04T07:21:38;2.60;67.80
68011;DHT22;54794;48.348;7.878;2023-12-04T07:24:05;1.70;67.30
68011;DHT22;54794;48.348;7.878;2023-12-04T07:26:33;1.70;67.30
68011;DHT22;54794;48.348;7.878;2023-12-04T07:29:02;1.70;67.30
68011;DHT22;54794;48.348;7.878;2023-12-04T07:31:30;1.70;67.30
68011;DHT22;54794;48.348;7.878;2023-12-04T07:33:58;1.70;67.40
68011;DHT22;54794;48.348;7.878;2023-12-04T07:36:29;1.70;67.40
68011;DHT22;54794;48.348;7.878;2023-12-04T07:38:56;1.70;67.40
68011;DHT22;54794;48.348;7.878;2023-12-04T07:41:22;1.70;67.40
68011;DHT22;54794;48.348;7.878;2023-12-04T07:43:50;1.80;67.40
68011;DHT22;54794;48.348;7.878;2023-12-04T07:46:17;1.80;67.40
68011;DHT22;54794;48.348;7.878;2023-12-04T07:48:44;1.80;67.50
68011;DHT22;54794;48.348;7.878;2023-12-04T07:51:12;1.80;67.50
68011;DHT22;54794;48.348;7.878;2023-12-04T07:53:39;1.80;67.60
68011;DHT22;54794;48.348;7.878;2023-12-04T07:56:07;1.80;67.60
68011;DHT22;54794;48.348;7.878;2023-12-04T07:58:37;1.90;67.60
68011;DHT22;54794;48.348;7.878;2023-12-04T08:01:04;2.60;68.00
68011;DHT22;54794;48.348;7.878;2023-12-04T08:03:43;1.90;67.60
68011;DHT22;54794;48.348;7.878;2023-12-04T08:06:32;2.50;67.90
68011;DHT22;54794;48.348;7.878;2023-12-04T08:09:09;2.00;67.80
68011;DHT22;54794;48.348;7.878;2023-12-04T08:11:39;1.80;67.60
68011;DHT22;54794;48.348;7.878;2023-12-04T08:14:20;1.70;67.50
68011;DHT22;54794;48.348;7.878;2023-12-04T08:17:02;2.40;67.80
68011;DHT22;54794;48.348;7.878;2023-12-04T08:19:34;2.10;67.70
68011;DHT22;54794;48.348;7.878;2023-12-04T08:22:03;2.00;67.60
68011;DHT22;54794;48.348;7.878;2023-12-04T08:24:38;2.10;67.70
68011;DHT22;54794;48.348;7.878;2023-12-04T08:27:08;2.30;67.80
68011;DHT22;54794;48.348;7.878;2023-12-04T08:29:49;2.40;67.90
68011;DHT22;54794;48.348;7.878;2023-12-04T08:32:23;1.90;67.50
68011;DHT22;54794;48.348;7.878;2023-12-04T08:35:04;2.10;67.70
68011;DHT22;54794;48.348;7.878;2023-12-04T08:37:36;2.20;67.70
68011;DHT22;54794;48.348;7.878;2023-12-04T08:40:15;2.30;67.60
68011;DHT22;54794;48.348;7.878;2023-12-04T08:42:57;2.20;68.00
68011;DHT22;54794;48.348;7.878;2023-12-04T08:45:34;2.10;67.40
68011;DHT22;54794;48.348;7.878;2023-12-04T08:48:11;2.20;67.50
68011;DHT22;54794;48.348;7.878;2023-12-04T08:50:47;2.20;67.50
68011;DHT22;54794;48.348;7.878;2023-12-04T08:53:14;2.20;67.50
68011;DHT22;54794;48.348;7.878;2023-12-04T08:55:41;2.30;67.50
68011;DHT22;54794;48.348;7.878;2023-12-04T08:58:08;2.30;67.60
68011;DHT22;54794;48.348;7.878;2023-12-04T09:00:37;2.30;67.50
68011;DHT22;54794;48.348;7.878;2023-12-04T09:03:09;2.40;67.60
68011;DHT22;54794;48.348;7.878;2023-12-04T09:05:51;2.40;67.50
68011;DHT22;54794;48.348;7.878;2023-12-04T09:08:19;2.40;67.60
68011;DHT22;54794;48.348;7.878;2023-12-04T09:11:02;2.40;67.60
68011;DHT22;54794;48.348;7.878;2023-12-04T09:13:48;2.40;67.60
68011;DHT22;54794;48.348;7.878;2023-12-04T09:16:15;2.40;67.60
68011;DHT22;54794;48.348;7.878;2023-12-04T09:18:42;2.40;67.60
68011;DHT22;54794;48.348;7.878;2023-12-04T09:21:09;2.50;67.80
68011;DHT22;54794;48.348;7.878;2023-12-04T09:23:36;2.50;67.80
68011;DHT22;54794;48.348;7.878;2023-12-04T09:26:03;2.50;67.90
68011;DHT22;54794;48.348;7.878;2023-12-04T09:28:30;2.50;67.90
68011;DHT22;54794;48.348;7.878;2023-12-04T09:30:57;2.50;67.90
68011;DHT22;54794;48.348;7.878;2023-12-04T09:33:26;2.60;67.80
68011;DHT22;54794;48.348;7.878;2023-12-04T09:35:53;2.60;67.50
68011;DHT22;54794;48.348;7.878;2023-12-04T09:38:20;2.50;67.40
68011;DHT22;54794;48.348;7.878;2023-12-04T09:40:47;2.60;67.50
68011;DHT22;54794;48.348;7.878;2023-12-04T09:43:16;2.70;67.50
68011;DHT22;54794;48.348;7.878;2023-12-04T09:45:46;2.50;67.40
68011;DHT22;54794;48.348;7.878;2023-12-04T09:48:14;2.50;67.60
68011;DHT22;54794;48.348;7.878;2023-12-04T09:50:41;2.80;67.80
68011;DHT22;54794;48.348;7.878;2023-12-04T09:53:10;3.30;68.10
68011;DHT22;54794;48.348;7.878;2023-12-04T09:55:38;2.60;67.70
68011;DHT22;54794;48.348;7.878;2023-12-04T09:58:05;2.90;67.90
68011;DHT22;54794;48.348;7.878;2023-12-04T10:00:32;2.60;67.80
68011;DHT22;54794;48.348;7.878;2023-12-04T10:02:59;2.70;67.70
68011;DHT22;54794;48.348;7.878;2023-12-04T10:05:27;2.80;67.70
68011;DHT22;54794;48.348;7.878;2023-12-04T10:07:54;2.90;67.60
68011;DHT22;54794;48.348;7.878;2023-12-04T10:10:21;2.80;67.60
68011;DHT22;54794;48.348;7.878;2023-12-04T10:12:48;2.70;67.50
68011;DHT22;54794;48.348;7.878;2023-12-04T10:15:14;3.70;68.00
68011;DHT22;54794;48.348;7.878;2023-12-04T10:17:43;2.80;67.60
68011;DHT22;54794;48.348;7.878;2023-12-04T10:20:16;3.00;67.70
68011;DHT22;54794;48.348;7.878;2023-12-04T10:22:59;2.80;67.60
68011;DHT22;54794;48.348;7.878;2023-12-04T10:25:29;3.00;67.60
68011;DHT22;54794;48.348;7.878;2023-12-04T10:28:08;2.90;67.50
68011;DHT22;54794;48.348;7.878;2023-12-04T10:30:37;3.00;67.60
68011;DHT22;54794;48.348;7.878;2023-12-04T10:33:08;3.00;67.60
68011;DHT22;54794;48.348;7.878;2023-12-04T10:35:36;3.10;67.70
68011;DHT22;54794;48.348;7.878;2023-12-04T10:38:07;3.10;67.70
68011;DHT22;54794;48.348;7.878;2023-12-04T10:40:36;3.20;67.80
68011;DHT22;54794;48.348;7.878;2023-12-04T10:45:45;3.20;67.70
68011;DHT22;54794;48.348;7.878;2023-12-04T10:48:14;3.30;67.80
68011;DHT22;54794;48.348;7.878;2023-12-04T10:50:47;3.30;67.80
68011;DHT22;54794;48.348;7.878;2023-12-04T10:53:16;3.30;67.90
68011;DHT22;54794;48.348;7.878;2023-12-04T10:55:44;3.40;68.00
68011;DHT22;54794;48.348;7.878;2023-12-04T10:58:13;3.40;68.00
68011;DHT22;54794;48.348;7.878;2023-12-04T11:00:49;3.40;68.10
68011;DHT22;54794;48.348;7.878;2023-12-04T11:03:40;3.40;68.20
68011;DHT22;54794;48.348;7.878;2023-12-04T11:06:12;3.50;68.60
68011;DHT22;54794;48.348;7.878;2023-12-04T11:08:42;3.50;68.40
68011;DHT22;54794;48.348;7.878;2023-12-04T11:11:15;3.60;68.50
68011;DHT22;54794;48.348;7.878;2023-12-04T11:13:50;3.60;68.60
68011;DHT22;54794;48.348;7.878;2023-12-04T11:19:43;3.70;68.80
68011;DHT22;54794;48.348;7.878;2023-12-04T11:22:20;3.80;68.90
68011;DHT22;54794;48.348;7.878;2023-12-04T11:24:57;3.80;68.60
68011;DHT22;54794;48.348;7.878;2023-12-04T11:27:25;3.80;68.60
68011;DHT22;54794;48.348;7.878;2023-12-04T11:29:52;3.80;68.70
68011;DHT22;54794;48.348;7.878;2023-12-04T11:32:24;3.80;68.60
68011;DHT22;54794;48.348;7.878;2023-12-04T11:34:59;3.80;68.70
68011;DHT22;54794;48.348;7.878;2023-12-04T11:37:29;3.90;68.70
68011;DHT22;54794;48.348;7.878;2023-12-04T11:40:03;3.70;68.60
68011;DHT22;54794;48.348;7.878;2023-12-04T11:42:31;3.90;68.70
68011;DHT22;54794;48.348;7.878;2023-12-04T11:44:59;4.40;68.90
68011;DHT22;54794;48.348;7.878;2023-12-04T11:47:28;4.00;68.70
68011;DHT22;54794;48.348;7.878;2023-12-04T11:49:55;4.00;68.70
68011;DHT22;54794;48.348;7.878;2023-12-04T11:52:33;4.00;68.70
68011;DHT22;54794;48.348;7.878;2023-12-04T11:55:04;4.10;68.80
68011;DHT22;54794;48.348;7.878;2023-12-04T11:57:37;4.10;68.70
68011;DHT22;54794;48.348;7.878;2023-12-04T12:00:13;4.10;68.70
68011;DHT22;54794;48.348;7.878;2023-12-04T12:03:05;4.20;68.60
68011;DHT22;54794;48.348;7.878;2023-12-04T12:05:49;4.20;68.50
68011;DHT22;54794;48.348;7.878;2023-12-04T12:08:18;4.30;68.40
68011;DHT22;54794;48.348;7.878;2023-12-04T12:10:45;4.20;68.40
68011;DHT22;54794;48.348;7.878;2023-12-04T12:13:13;4.20;68.50
68011;DHT22;54794;48.348;7.878;2023-12-04T12:15:41;4.20;68.60
68011;DHT22;54794;48.348;7.878;2023-12-04T12:18:08;4.20;68.50
68011;DHT22;54794;48.348;7.878;2023-12-04T12:20:37;4.30;68.60
68011;DHT22;54794;48.348;7.878;2023-12-04T12:23:04;4.30;68.60
68011;DHT22;54794;48.348;7.878;2023-12-04T12:25:34;4.20;68.50
68011;DHT22;54794;48.348;7.878;2023-12-04T12:28:05;4.70;68.80
68011;DHT22;54794;48.348;7.878;2023-12-04T12:30:32;4.30;68.70
68011;DHT22;54794;48.348;7.878;2023-12-04T12:33:00;4.20;68.70
68011;DHT22;54794;48.348;7.878;2023-12-04T12:35:30;4.30;68.90
68011;DHT22;54794;48.348;7.878;2023-12-04T12:38:02;4.30;68.80
68011;DHT22;54794;48.348;7.878;2023-12-04T12:40:29;4.50;68.80
68011;DHT22;54794;48.348;7.878;2023-12-04T12:43:06;4.20;68.60
68011;DHT22;54794;48.348;7.878;2023-12-04T12:45:41;4.30;68.60
68011;DHT22;54794;48.348;7.878;2023-12-04T12:48:14;4.30;68.50
68011;DHT22;54794;48.348;7.878;2023-12-04T12:50:46;4.20;68.40
68011;DHT22;54794;48.348;7.878;2023-12-04T12:53:14;4.30;68.60
68011;DHT22;54794;48.348;7.878;2023-12-04T12:55:41;4.30;68.70
68011;DHT22;54794;48.348;7.878;2023-12-04T12:58:12;4.30;68.70
68011;DHT22;54794;48.348;7.878;2023-12-04T13:00:47;4.20;68.60
68011;DHT22;54794;48.348;7.878;2023-12-04T13:03:18;4.30;68.70
68011;DHT22;54794;48.348;7.878;2023-12-04T13:05:46;4.30;68.80
68011;DHT22;54794;48.348;7.878;2023-12-04T13:08:14;4.20;68.80
68011;DHT22;54794;48.348;7.878;2023-12-04T13:10:44;4.50;69.50
68011;DHT22;54794;48.348;7.878;2023-12-04T13:13:12;4.30;69.10
68011;DHT22;54794;48.348;7.878;2023-12-04T13:15:42;4.00;68.80
68011;DHT22;54794;48.348;7.878;2023-12-04T13:18:10;4.40;69.10
68011;DHT22;54794;48.348;7.878;2023-12-04T13:20:45;4.40;69.10
68011;DHT22;54794;48.348;7.878;2023-12-04T13:23:21;4.50;69.00
68011;DHT22;54794;48.348;7.878;2023-12-04T13:25:53;4.50;69.00
68011;DHT22;54794;48.348;7.878;2023-12-04T13:28:23;4.40;69.00
68011;DHT22;54794;48.348;7.878;2023-12-04T13:31:02;4.50;69.10
68011;DHT22;54794;48.348;7.878;2023-12-04T13:33:34;4.50;69.00
68011;DHT22;54794;48.348;7.878;2023-12-04T13:36:11;4.80;69.30
68011;DHT22;54794;48.348;7.878;2023-12-04T13:38:49;4.40;69.10
68011;DHT22;54794;48.348;7.878;2023-12-04T13:41:16;4.30;69.00
68011;DHT22;54794;48.348;7.878;2023-12-04T13:44:05;4.70;69.20
68011;DHT22;54794;48.348;7.878;2023-12-04T13:46:37;4.60;69.20
68011;DHT22;54794;48.348;7.878;2023-12-04T13:49:05;4.60;69.10
68011;DHT22;54794;48.348;7.878;2023-12-04T13:51:35;4.60;69.10
68011;DHT22;54794;48.348;7.878;2023-12-04T13:54:06;4.40;68.90
68011;DHT22;54794;48.348;7.878;2023-12-04T13:56:49;4.50;69.00
68011;DHT22;54794;48.348;7.878;2023-12-04T13:59:27;5.00;69.20
68011;DHT22;54794;48.348;7.878;2023-12-04T14:01:58;4.50;68.90
68011;DHT22;54794;48.348;7.878;2023-12-04T14:04:31;4.40;68.70
68011;DHT22;54794;48.348;7.878;2023-12-04T14:06:58;4.90;69.00
68011;DHT22;54794;48.348;7.878;2023-12-04T14:09:31;4.60;69.00
68011;DHT22;54794;48.348;7.878;2023-12-04T14:12:01;4.40;68.80
68011;DHT22;54794;48.348;7.878;2023-12-04T14:14:42;4.80;69.30
68011;DHT22;54794;48.348;7.878;2023-12-04T14:20:48;4.90;69.60
68011;DHT22;54794;48.348;7.878;2023-12-04T14:23:18;4.40;69.30
68011;DHT22;54794;48.348;7.878;2023-12-04T14:25:48;4.50;69.50
68011;DHT22;54794;48.348;7.878;2023-12-04T14:28:19;4.80;69.70
68011;DHT22;54794;48.348;7.878;2023-12-04T14:30:58;4.50;69.60
68011;DHT22;54794;48.348;7.878;2023-12-04T14:33:45;4.50;69.50
68011;DHT22;54794;48.348;7.878;2023-12-04T14:36:12;4.50;69.70
68011;DHT22;54794;48.348;7.878;2023-12-04T14:38:40;4.60;70.40
68011;DHT22;54794;48.348;7.878;2023-12-04T14:41:10;4.70;70.50
68011;DHT22;54794;48.348;7.878;2023-12-04T14:43:39;4.50;69.60
68011;DHT22;54794;48.348;7.878;2023-12-04T14:46:07;4.60;69.60
68011;DHT22;54794;48.348;7.878;2023-12-04T14:48:38;4.60;70.40
68011;DHT22;54794;48.348;7.878;2023-12-04T14:51:09;4.70;70.10
68011;DHT22;54794;48.348;7.878;2023-12-04T14:53:39;4.10;69.60
68011;DHT22;54794;48.348;7.878;2023-12-04T15:00:16;4.60;70.20
68011;DHT22;54794;48.348;7.878;2023-12-04T15:03:01;4.80;69.80
68011;DHT22;54794;48.348;7.878;2023-12-04T15:05:51;4.80;69.90
68011;DHT22;54794;48.348;7.878;2023-12-04T15:08:49;4.90;70.00
68011;DHT22;54794;48.348;7.878;2023-12-04T15:11:41;4.80;70.20
68011;DHT22;54794;48.348;7.878;2023-12-04T15:14:33;4.90;69.90
68011;DHT22;54794;48.348;7.878;2023-12-04T15:17:07;4.80;70.00
68011;DHT22;54794;48.348;7.878;2023-12-04T15:19:54;4.90;69.70
68011;DHT22;54794;48.348;7.878;2023-12-04T15:22:40;4.80;69.60
68011;DHT22;54794;48.348;7.878;2023-12-04T15:25:07;4.40;69.60
68011;DHT22;54794;48.348;7.878;2023-12-04T15:27:38;5.00;69.70
68011;DHT22;54794;48.348;7.878;2023-12-04T15:30:06;5.10;69.80
68011;DHT22;54794;48.348;7.878;2023-12-04T15:32:38;5.00;69.80
68011;DHT22;54794;48.348;7.878;2023-12-04T15:35:10;4.40;69.50
68011;DHT22;54794;48.348;7.878;2023-12-04T15:37:43;5.20;69.90
68011;DHT22;54794;48.348;7.878;2023-12-04T15:48:14;5.00;69.80
68011;DHT22;54794;48.348;7.878;2023-12-04T15:51:43;5.20;69.80
68011;DHT22;54794;48.348;7.878;2023-12-04T15:55:07;4.90;69.50
68011;DHT22;54794;48.348;7.878;2023-12-04T15:57:50;4.90;69.70
68011;DHT22;54794;48.348;7.878;2023-12-04T16:04:47;4.90;69.80
68011;DHT22;54794;48.348;7.878;2023-12-04T16:11:45;4.90;69.80
68011;DHT22;54794;48.348;7.878;2023-12-04T16:23:32;4.90;69.90
68011;DHT22;54794;48.348;7.878;2023-12-04T16:27:35;4.30;69.60
68011;DHT22;54794;48.348;7.878;2023-12-04T16:34:46;4.80;69.90
68011;DHT22;54794;48.348;7.878;2023-12-04T16:37:13;4.80;70.10
68011;DHT22;54794;48.348;7.878;2023-12-04T16:39:41;4.90;70.00
68011;DHT22;54794;48.348;7.878;2023-12-04T16:42:08;4.80;70.20
68011;DHT22;54794;48.348;7.878;2023-12-04T16:44:35;4.80;70.10
68011;DHT22;54794;48.348;7.878;2023-12-04T16:47:02;5.20;70.30
68011;DHT22;54794;48.348;7.878;2023-12-04T16:49:30;4.90;70.10